sensor_id;sensor_type;location;lat;lon;timestamp;temperature;humidity
20891;DHT22;10605;52.968;8.844;2023-02-28T00:01:26;2.30;99.90
20891;DHT22;10605;52.968;8.844;2023-02-28T00:03:52;2.20;99.90
20891;DHT22;10605;52.968;8.844;2023-02-28T00:06:18;2.20;99.90
20891;DHT22;10605;52.968;8.844;2023-02-28T00:08:44;2.10;99.90
20891;DHT22;10605;52.968;8.844;2023-02-28T00:11:11;2.10;99.90
20891;DHT22;10605;52.968;8.844;2023-02-28T00:13:40;2.10;99.90
20891;DHT22;10605;52.968;8.844;2023-02-28T00:16:11;2.10;99.90
20891;DHT22;10605;52.968;8.844;2023-02-28T00:18:37;2.00;99.90
20891;DHT22;10605;52.968;8.844;2023-02-28T00:21:03;2.00;99.90
20891;DHT22;10605;52.968;8.844;2023-02-28T00:23:29;1.90;99.90
20891;DHT22;10605;52.968;8.844;2023-02-28T00:25:55;1.90;99.90
20891;DHT22;10605;52.968;8.844;2023-02-28T00:28:21;1.80;99.90
20891;DHT22;10605;52.968;8.844;2023-02-28T00:30:47;1.80;99.90
20891;DHT22;10605;52.968;8.844;2023-02-28T00:33:13;1.60;99.90
20891;DHT22;10605;52.968;8.844;2023-02-28T00:35:39;1.50;99.90
20891;DHT22;10605;52.968;8.844;2023-02-28T00:38:05;1.40;99.90
20891;DHT22;10605;52.968;8.844;2023-02-28T00:40:31;1.50;99.90
20891;DHT22;10605;52.968;8.844;2023-02-28T00:42:57;1.50;99.90
20891;DHT22;10605;52.968;8.844;2023-02-28T00:45:23;1.60;99.90
20891;DHT22;10605;52.968;8.844;2023-02-28T00:47:49;1.60;99.90
20891;DHT22;10605;52.968;8.844;2023-02-28T00:50:18;1.60;99.90
20891;DHT22;10605;52.968;8.844;2023-02-28T00:52:45;1.70;99.90
20891;DHT22;10605;52.968;8.844;2023-02-28T00:55:11;1.70;99.90
20891;DHT22;10605;52.968;8.844;2023-02-28T00:57:37;1.70;99.90
20891;DHT22;10605;52.968;8.844;2023-02-28T01:00:03;1.70;99.90
20891;DHT22;10605;52.968;8.844;2023-02-28T01:02:29;1.70;99.90
20891;DHT22;10605;52.968;8.844;2023-02-28T01:04:54;1.60;99.90
20891;DHT22;10605;52.968;8.844;2023-02-28T01:07:22;1.50;99.90
20891;DHT22;10605;52.968;8.844;2023-02-28T01:09:48;1.50;99.90
20891;DHT22;10605;52.968;8.844;2023-02-28T01:12:13;1.40;99.90
20891;DHT22;10605;52.968;8.844;2023-02-28T01:14:39;1.40;99.90
20891;DHT22;10605;52.968;8.844;2023-02-28T01:17:05;1.20;99.90
20891;DHT22;10605;52.968;8.844;2023-02-28T01:19:31;1.10;99.90
20891;DHT22;10605;52.968;8.844;2023-02-28T01:21:57;1.10;99.90
20891;DHT22;10605;52.968;8.844;2023-02-28T01:24:25;1.00;99.90
20891;DHT22;10605;52.968;8.844;2023-02-28T01:26:51;1.00;99.90
20891;DHT22;10605;52.968;8.844;2023-02-28T01:29:16;1.00;99.90
20891;DHT22;10605;52.968;8.844;2023-02-28T01:31:42;0.90;99.90
20891;DHT22;10605;52.968;8.844;2023-02-28T01:34:08;0.80;99.90
20891;DHT22;10605;52.968;8.844;2023-02-28T01:36:33;0.80;99.90
20891;DHT22;10605;52.968;8.844;2023-02-28T01:38:59;0.80;99.90
20891;DHT22;10605;52.968;8.844;2023-02-28T01:41:29;0.80;99.90
20891;DHT22;10605;52.968;8.844;2023-02-28T01:43:59;0.80;99.90
20891;DHT22;10605;52.968;8.844;2023-02-28T01:46:25;0.90;99.90
20891;DHT22;10605;52.968;8.844;2023-02-28T01:49:14;0.80;99.90
20891;DHT22;10605;52.968;8.844;2023-02-28T01:51:53;0.80;99.90
20891;DHT22;10605;52.968;8.844;2023-02-28T01:54:27;0.70;99.90
20891;DHT22;10605;52.968;8.844;2023-02-28T01:57:10;0.70;99.90
20891;DHT22;10605;52.968;8.844;2023-02-28T01:59:40;0.70;99.90
20891;DHT22;10605;52.968;8.844;2023-02-28T02:02:14;0.70;99.90
20891;DHT22;10605;52.968;8.844;2023-02-28T02:07:16;0.80;99.90
20891;DHT22;10605;52.968;8.844;2023-02-28T02:09:42;0.80;99.90
20891;DHT22;10605;52.968;8.844;2023-02-28T02:15:24;0.90;99.90
20891;DHT22;10605;52.968;8.844;2023-02-28T02:17:55;0.80;99.90
20891;DHT22;10605;52.968;8.844;2023-02-28T02:20:41;0.80;99.90
20891;DHT22;10605;52.968;8.844;2023-02-28T02:25:45;0.80;99.90
20891;DHT22;10605;52.968;8.844;2023-02-28T02:37:14;0.50;99.90
20891;DHT22;10605;52.968;8.844;2023-02-28T02:39:54;0.30;99.90
20891;DHT22;10605;52.968;8.844;2023-02-28T02:45:09;0.00;99.90
20891;DHT22;10605;52.968;8.844;2023-02-28T02:47:37;-0.10;99.90
20891;DHT22;10605;52.968;8.844;2023-02-28T02:50:11;-0.20;99.90
20891;DHT22;10605;52.968;8.844;2023-02-28T02:52:42;-0.20;99.90
20891;DHT22;10605;52.968;8.844;2023-02-28T02:55:09;-0.30;99.90
20891;DHT22;10605;52.968;8.844;2023-02-28T03:00:14;-0.50;99.90
20891;DHT22;10605;52.968;8.844;2023-02-28T03:02:42;-0.40;99.90
20891;DHT22;10605;52.968;8.844;2023-02-28T03:05:26;-0.40;99.90
20891;DHT22;10605;52.968;8.844;2023-02-28T03:07:53;-0.40;99.90
20891;DHT22;10605;52.968;8.844;2023-02-28T03:10:39;-0.40;99.90
20891;DHT22;10605;52.968;8.844;2023-02-28T03:13:14;-0.50;99.90
20891;DHT22;10605;52.968;8.844;2023-02-28T03:23:52;-0.50;99.90
20891;DHT22;10605;52.968;8.844;2023-02-28T03:26:26;-0.50;99.90
20891;DHT22;10605;52.968;8.844;2023-02-28T03:29:23;-0.40;99.90
20891;DHT22;10605;52.968;8.844;2023-02-28T03:32:04;-0.50;99.90
20891;DHT22;10605;52.968;8.844;2023-02-28T03:34:33;-0.40;99.90
20891;DHT22;10605;52.968;8.844;2023-02-28T03:37:22;-0.40;99.90
20891;DHT22;10605;52.968;8.844;2023-02-28T03:40:02;-0.40;99.90
20891;DHT22;10605;52.968;8.844;2023-02-28T03:42:34;-0.40;99.90
20891;DHT22;10605;52.968;8.844;2023-02-28T03:50:38;-0.60;99.90
20891;DHT22;10605;52.968;8.844;2023-02-28T03:53:20;-0.60;99.90
20891;DHT22;10605;52.968;8.844;2023-02-28T03:56:27;-0.50;99.90
20891;DHT22;10605;52.968;8.844;2023-02-28T03:59:02;-0.50;99.90
20891;DHT22;10605;52.968;8.844;2023-02-28T04:01:39;-0.40;99.90
20891;DHT22;10605;52.968;8.844;2023-02-28T04:04:07;-0.40;99.90
20891;DHT22;10605;52.968;8.844;2023-02-28T04:06:34;-0.40;99.90
20891;DHT22;10605;52.968;8.844;2023-02-28T04:09:01;-0.40;99.90
20891;DHT22;10605;52.968;8.844;2023-02-28T04:11:34;-0.30;99.90
20891;DHT22;10605;52.968;8.844;2023-02-28T04:14:01;-0.40;99.90
20891;DHT22;10605;52.968;8.844;2023-02-28T04:16:30;-0.40;99.90
20891;DHT22;10605;52.968;8.844;2023-02-28T04:18:56;-0.30;99.90
20891;DHT22;10605;52.968;8.844;2023-02-28T04:21:32;-0.30;99.90
20891;DHT22;10605;52.968;8.844;2023-02-28T04:23:58;-0.30;99.90
20891;DHT22;10605;52.968;8.844;2023-02-28T04:26:30;-0.40;99.90
20891;DHT22;10605;52.968;8.844;2023-02-28T04:28:56;-0.50;99.90
20891;DHT22;10605;52.968;8.844;2023-02-28T04:31:22;-0.60;99.90
20891;DHT22;10605;52.968;8.844;2023-02-28T04:33:47;-0.70;99.90
20891;DHT22;10605;52.968;8.844;2023-02-28T04:36:13;-0.70;99.90
20891;DHT22;10605;52.968;8.844;2023-02-28T04:38:40;-0.80;99.90
20891;DHT22;10605;52.968;8.844;2023-02-28T04:41:06;-0.80;99.90
20891;DHT22;10605;52.968;8.844;2023-02-28T04:43:32;-0.90;99.90
20891;DHT22;10605;52.968;8.844;2023-02-28T04:46:01;-0.80;99.90
20891;DHT22;10605;52.968;8.844;2023-02-28T04:48:29;-0.90;99.90
20891;DHT22;10605;52.968;8.844;2023-02-28T04:50:55;-1.00;99.90
20891;DHT22;10605;52.968;8.844;2023-02-28T04:53:20;-1.00;99.90
20891;DHT22;10605;52.968;8.844;2023-02-28T04:55:46;-1.20;99.90
20891;DHT22;10605;52.968;8.844;2023-02-28T04:58:13;-1.10;99.90
20891;DHT22;10605;52.968;8.844;2023-02-28T05:00:39;-1.20;99.90
20891;DHT22;10605;52.968;8.844;2023-02-28T05:03:04;-1.20;99.90
20891;DHT22;10605;52.968;8.844;2023-02-28T05:05:30;-1.20;99.90
20891;DHT22;10605;52.968;8.844;2023-02-28T05:07:56;-1.20;99.90
20891;DHT22;10605;52.968;8.844;2023-02-28T05:10:25;-1.20;99.90
20891;DHT22;10605;52.968;8.844;2023-02-28T05:12:50;-1.20;99.90
20891;DHT22;10605;52.968;8.844;2023-02-28T05:15:17;-1.20;99.90
20891;DHT22;10605;52.968;8.844;2023-02-28T05:17:43;-1.40;99.90
20891;DHT22;10605;52.968;8.844;2023-02-28T05:20:10;-1.50;99.90
20891;DHT22;10605;52.968;8.844;2023-02-28T05:22:39;-1.70;99.90
20891;DHT22;10605;52.968;8.844;2023-02-28T05:25:05;-1.60;99.90
20891;DHT22;10605;52.968;8.844;2023-02-28T05:27:32;-1.60;99.90
20891;DHT22;10605;52.968;8.844;2023-02-28T05:29:58;-1.70;99.90
20891;DHT22;10605;52.968;8.844;2023-02-28T05:32:24;-1.70;99.90
20891;DHT22;10605;52.968;8.844;2023-02-28T05:34:50;-1.80;99.90
20891;DHT22;10605;52.968;8.844;2023-02-28T05:37:16;-1.80;99.90
20891;DHT22;10605;52.968;8.844;2023-02-28T05:39:42;-1.80;99.90
20891;DHT22;10605;52.968;8.844;2023-02-28T05:42:08;-1.90;99.90
20891;DHT22;10605;52.968;8.844;2023-02-28T05:44:36;-1.90;99.90
20891;DHT22;10605;52.968;8.844;2023-02-28T05:47:01;-2.00;99.90
20891;DHT22;10605;52.968;8.844;2023-02-28T05:49:27;-1.90;99.90
20891;DHT22;10605;52.968;8.844;2023-02-28T05:51:53;-1.90;99.90
20891;DHT22;10605;52.968;8.844;2023-02-28T05:54:19;-1.90;99.90
20891;DHT22;10605;52.968;8.844;2023-02-28T05:56:45;-1.90;99.90
20891;DHT22;10605;52.968;8.844;2023-02-28T05:59:12;-1.90;99.90
20891;DHT22;10605;52.968;8.844;2023-02-28T06:01:43;-1.80;99.90
20891;DHT22;10605;52.968;8.844;2023-02-28T06:04:18;-1.70;99.90
20891;DHT22;10605;52.968;8.844;2023-02-28T06:06:47;-1.60;99.90
20891;DHT22;10605;52.968;8.844;2023-02-28T06:09:14;-1.60;99.90
20891;DHT22;10605;52.968;8.844;2023-02-28T06:11:41;-1.50;99.90
20891;DHT22;10605;52.968;8.844;2023-02-28T06:14:16;-1.60;99.90
20891;DHT22;10605;52.968;8.844;2023-02-28T06:16:44;-1.60;99.90
20891;DHT22;10605;52.968;8.844;2023-02-28T06:19:10;-1.50;99.90
20891;DHT22;10605;52.968;8.844;2023-02-28T06:21:36;-1.50;99.90
20891;DHT22;10605;52.968;8.844;2023-02-28T06:24:03;-1.50;99.90
20891;DHT22;10605;52.968;8.844;2023-02-28T06:26:29;-1.50;99.90
20891;DHT22;10605;52.968;8.844;2023-02-28T06:28:57;-1.40;99.90
20891;DHT22;10605;52.968;8.844;2023-02-28T06:31:23;-1.40;99.90
20891;DHT22;10605;52.968;8.844;2023-02-28T06:33:51;-1.30;99.90
20891;DHT22;10605;52.968;8.844;2023-02-28T06:36:17;-1.20;99.90
20891;DHT22;10605;52.968;8.844;2023-02-28T06:38:44;-1.00;99.90
20891;DHT22;10605;52.968;8.844;2023-02-28T06:41:10;-0.90;99.90
20891;DHT22;10605;52.968;8.844;2023-02-28T06:43:45;-0.70;99.90
20891;DHT22;10605;52.968;8.844;2023-02-28T06:46:14;-0.40;99.90
20891;DHT22;10605;52.968;8.844;2023-02-28T06:48:40;-0.20;99.90
20891;DHT22;10605;52.968;8.844;2023-02-28T06:51:09;0.00;99.90
20891;DHT22;10605;52.968;8.844;2023-02-28T06:53:36;0.20;99.90
20891;DHT22;10605;52.968;8.844;2023-02-28T06:56:10;0.20;99.90
20891;DHT22;10605;52.968;8.844;2023-02-28T06:58:36;0.40;99.90
20891;DHT22;10605;52.968;8.844;2023-02-28T07:01:03;0.60;99.90
20891;DHT22;10605;52.968;8.844;2023-02-28T07:03:28;0.90;99.90
20891;DHT22;10605;52.968;8.844;2023-02-28T07:05:54;1.10;99.90
20891;DHT22;10605;52.968;8.844;2023-02-28T07:08:25;1.30;99.90
20891;DHT22;10605;52.968;8.844;2023-02-28T07:10:53;1.60;99.90
20891;DHT22;10605;52.968;8.844;2023-02-28T07:13:22;2.40;99.90
20891;DHT22;10605;52.968;8.844;2023-02-28T07:15:59;2.90;99.90
20891;DHT22;10605;52.968;8.844;2023-02-28T07:18:25;3.50;99.90
20891;DHT22;10605;52.968;8.844;2023-02-28T07:20:51;3.60;99.90
20891;DHT22;10605;52.968;8.844;2023-02-28T07:23:17;3.90;99.90
20891;DHT22;10605;52.968;8.844;2023-02-28T07:25:43;4.30;99.90
20891;DHT22;10605;52.968;8.844;2023-02-28T07:28:11;4.50;99.90
20891;DHT22;10605;52.968;8.844;2023-02-28T07:30:37;4.70;99.90
20891;DHT22;10605;52.968;8.844;2023-02-28T07:33:05;5.20;99.90
20891;DHT22;10605;52.968;8.844;2023-02-28T07:35:34;5.70;99.90
20891;DHT22;10605;52.968;8.844;2023-02-28T07:38:03;5.80;99.90
20891;DHT22;10605;52.968;8.844;2023-02-28T07:40:29;6.30;99.90
20891;DHT22;10605;52.968;8.844;2023-02-28T07:42:55;6.40;99.90
20891;DHT22;10605;52.968;8.844;2023-02-28T07:45:21;6.50;99.90
20891;DHT22;10605;52.968;8.844;2023-02-28T07:47:52;6.60;99.90
20891;DHT22;10605;52.968;8.844;2023-02-28T07:50:26;6.70;99.90
20891;DHT22;10605;52.968;8.844;2023-02-28T07:52:54;6.70;99.90
20891;DHT22;10605;52.968;8.844;2023-02-28T07:55:23;6.70;99.90
20891;DHT22;10605;52.968;8.844;2023-02-28T07:57:49;6.80;99.90
20891;DHT22;10605;52.968;8.844;2023-02-28T08:00:23;7.00;99.90
20891;DHT22;10605;52.968;8.844;2023-02-28T08:02:49;7.10;99.90
20891;DHT22;10605;52.968;8.844;2023-02-28T08:05:15;7.00;99.90
20891;DHT22;10605;52.968;8.844;2023-02-28T08:07:41;7.00;99.90
20891;DHT22;10605;52.968;8.844;2023-02-28T08:10:10;7.30;99.90
20891;DHT22;10605;52.968;8.844;2023-02-28T08:12:36;7.60;99.90
20891;DHT22;10605;52.968;8.844;2023-02-28T08:15:02;8.20;99.90
20891;DHT22;10605;52.968;8.844;2023-02-28T08:17:30;8.60;99.90
20891;DHT22;10605;52.968;8.844;2023-02-28T08:19:56;8.30;99.90
20891;DHT22;10605;52.968;8.844;2023-02-28T08:22:21;8.90;99.90
20891;DHT22;10605;52.968;8.844;2023-02-28T08:24:49;9.20;99.90
20891;DHT22;10605;52.968;8.844;2023-02-28T08:27:18;9.40;99.90
20891;DHT22;10605;52.968;8.844;2023-02-28T08:29:43;9.40;99.90
20891;DHT22;10605;52.968;8.844;2023-02-28T08:32:09;9.50;99.90
20891;DHT22;10605;52.968;8.844;2023-02-28T08:34:39;9.70;99.90
20891;DHT22;10605;52.968;8.844;2023-02-28T08:37:11;9.80;99.90
20891;DHT22;10605;52.968;8.844;2023-02-28T08:39:39;10.20;99.90
20891;DHT22;10605;52.968;8.844;2023-02-28T08:42:05;10.50;99.90
20891;DHT22;10605;52.968;8.844;2023-02-28T08:44:31;10.60;99.90
20891;DHT22;10605;52.968;8.844;2023-02-28T08:47:02;11.00;99.90
20891;DHT22;10605;52.968;8.844;2023-02-28T08:49:28;11.40;99.90
20891;DHT22;10605;52.968;8.844;2023-02-28T08:51:56;11.10;99.90
20891;DHT22;10605;52.968;8.844;2023-02-28T08:54:23;11.20;99.90
20891;DHT22;10605;52.968;8.844;2023-02-28T08:56:48;11.00;99.90
20891;DHT22;10605;52.968;8.844;2023-02-28T08:59:14;11.40;99.90
20891;DHT22;10605;52.968;8.844;2023-02-28T09:01:43;11.70;99.90
20891;DHT22;10605;52.968;8.844;2023-02-28T09:04:14;11.50;96.90
20891;DHT22;10605;52.968;8.844;2023-02-28T09:06:43;12.20;96.10
20891;DHT22;10605;52.968;8.844;2023-02-28T09:09:09;11.50;92.20
20891;DHT22;10605;52.968;8.844;2023-02-28T09:11:38;12.30;92.30
20891;DHT22;10605;52.968;8.844;2023-02-28T09:14:04;12.70;90.90
20891;DHT22;10605;52.968;8.844;2023-02-28T09:16:31;12.40;90.10
20891;DHT22;10605;52.968;8.844;2023-02-28T09:18:57;12.30;86.40
20891;DHT22;10605;52.968;8.844;2023-02-28T09:21:25;12.80;90.30
20891;DHT22;10605;52.968;8.844;2023-02-28T09:23:54;13.40;86.40
20891;DHT22;10605;52.968;8.844;2023-02-28T09:26:26;13.70;82.40
20891;DHT22;10605;52.968;8.844;2023-02-28T09:28:55;13.40;79.40
20891;DHT22;10605;52.968;8.844;2023-02-28T09:31:26;13.50;77.60
20891;DHT22;10605;52.968;8.844;2023-02-28T09:34:01;13.90;76.30
20891;DHT22;10605;52.968;8.844;2023-02-28T09:36:29;14.30;71.50
20891;DHT22;10605;52.968;8.844;2023-02-28T09:38:58;14.80;70.20
20891;DHT22;10605;52.968;8.844;2023-02-28T09:41:35;15.60;68.30
20891;DHT22;10605;52.968;8.844;2023-02-28T09:44:03;15.70;62.60
20891;DHT22;10605;52.968;8.844;2023-02-28T09:46:37;15.80;60.90
20891;DHT22;10605;52.968;8.844;2023-02-28T09:49:31;15.80;58.50
20891;DHT22;10605;52.968;8.844;2023-02-28T09:52:02;15.30;56.30
20891;DHT22;10605;52.968;8.844;2023-02-28T09:54:39;14.80;55.10
20891;DHT22;10605;52.968;8.844;2023-02-28T09:57:19;15.30;55.10
20891;DHT22;10605;52.968;8.844;2023-02-28T10:00:18;14.70;56.20
20891;DHT22;10605;52.968;8.844;2023-02-28T10:09:10;14.30;52.50
20891;DHT22;10605;52.968;8.844;2023-02-28T10:11:56;13.70;54.30
20891;DHT22;10605;52.968;8.844;2023-02-28T10:14:29;14.40;55.50
20891;DHT22;10605;52.968;8.844;2023-02-28T10:17:12;14.90;52.40
20891;DHT22;10605;52.968;8.844;2023-02-28T10:24:47;15.70;50.80
20891;DHT22;10605;52.968;8.844;2023-02-28T10:27:21;14.60;50.20
20891;DHT22;10605;52.968;8.844;2023-02-28T10:29:50;14.60;50.60
20891;DHT22;10605;52.968;8.844;2023-02-28T10:32:30;14.80;50.20
20891;DHT22;10605;52.968;8.844;2023-02-28T10:37:39;14.10;51.30
20891;DHT22;10605;52.968;8.844;2023-02-28T10:45:57;15.10;49.50
20891;DHT22;10605;52.968;8.844;2023-02-28T10:48:29;13.40;52.10
20891;DHT22;10605;52.968;8.844;2023-02-28T10:51:06;13.90;54.30
20891;DHT22;10605;52.968;8.844;2023-02-28T10:53:35;14.00;52.40
20891;DHT22;10605;52.968;8.844;2023-02-28T10:56:18;14.90;51.40
20891;DHT22;10605;52.968;8.844;2023-02-28T10:58:59;14.80;50.10
20891;DHT22;10605;52.968;8.844;2023-02-28T11:03:58;14.60;51.00
20891;DHT22;10605;52.968;8.844;2023-02-28T11:06:34;14.60;48.00
20891;DHT22;10605;52.968;8.844;2023-02-28T11:12:10;14.70;48.90
20891;DHT22;10605;52.968;8.844;2023-02-28T11:14:54;14.40;49.40
20891;DHT22;10605;52.968;8.844;2023-02-28T11:17:29;15.40;47.20
20891;DHT22;10605;52.968;8.844;2023-02-28T11:20:00;15.40;47.80
20891;DHT22;10605;52.968;8.844;2023-02-28T11:22:39;15.50;47.50
20891;DHT22;10605;52.968;8.844;2023-02-28T11:25:31;15.80;45.40
20891;DHT22;10605;52.968;8.844;2023-02-28T11:27:59;15.20;45.60
20891;DHT22;10605;52.968;8.844;2023-02-28T11:30:43;15.60;47.00
20891;DHT22;10605;52.968;8.844;2023-02-28T11:35:51;15.50;44.40
20891;DHT22;10605;52.968;8.844;2023-02-28T11:38:21;16.10;46.00
20891;DHT22;10605;52.968;8.844;2023-02-28T11:41:11;16.20;44.10
20891;DHT22;10605;52.968;8.844;2023-02-28T11:44:04;14.60;45.30
20891;DHT22;10605;52.968;8.844;2023-02-28T11:46:51;15.30;44.70
20891;DHT22;10605;52.968;8.844;2023-02-28T11:52:22;15.90;43.90
20891;DHT22;10605;52.968;8.844;2023-02-28T12:06:01;15.20;43.20
20891;DHT22;10605;52.968;8.844;2023-02-28T12:11:47;15.50;42.70
20891;DHT22;10605;52.968;8.844;2023-02-28T12:24:58;14.80;45.70
20891;DHT22;10605;52.968;8.844;2023-02-28T12:27:33;15.50;42.40
20891;DHT22;10605;52.968;8.844;2023-02-28T12:33:14;14.10;44.60
20891;DHT22;10605;52.968;8.844;2023-02-28T12:35:50;13.60;46.90
20891;DHT22;10605;52.968;8.844;2023-02-28T12:41:09;14.40;46.00
20891;DHT22;10605;52.968;8.844;2023-02-28T12:43:44;14.50;46.20
20891;DHT22;10605;52.968;8.844;2023-02-28T12:46:17;14.50;45.40
20891;DHT22;10605;52.968;8.844;2023-02-28T12:48:52;13.60;46.50
20891;DHT22;10605;52.968;8.844;2023-02-28T12:51:22;13.60;47.20
20891;DHT22;10605;52.968;8.844;2023-02-28T12:54:09;13.60;48.00
20891;DHT22;10605;52.968;8.844;2023-02-28T12:56:54;13.20;47.60
20891;DHT22;10605;52.968;8.844;2023-02-28T13:10:57;8.40;60.50
20891;DHT22;10605;52.968;8.844;2023-02-28T13:13:25;8.40;63.60
20891;DHT22;10605;52.968;8.844;2023-02-28T13:18:44;7.90;65.70
20891;DHT22;10605;52.968;8.844;2023-02-28T14:01:07;7.20;71.90
20891;DHT22;10605;52.968;8.844;2023-02-28T14:06:37;7.10;76.10
20891;DHT22;10605;52.968;8.844;2023-02-28T14:17:58;7.00;72.90
20891;DHT22;10605;52.968;8.844;2023-02-28T14:20:30;7.00;73.30
20891;DHT22;10605;52.968;8.844;2023-02-28T14:23:39;7.00;72.50
20891;DHT22;10605;52.968;8.844;2023-02-28T14:34:45;6.90;74.30
20891;DHT22;10605;52.968;8.844;2023-02-28T14:37:33;7.00;76.70
20891;DHT22;10605;52.968;8.844;2023-02-28T14:43:19;7.10;75.30
20891;DHT22;10605;52.968;8.844;2023-02-28T14:45:59;6.90;75.10
20891;DHT22;10605;52.968;8.844;2023-02-28T14:48:33;6.80;75.20
20891;DHT22;10605;52.968;8.844;2023-02-28T14:51:00;6.80;72.90
20891;DHT22;10605;52.968;8.844;2023-02-28T14:53:36;6.80;73.70
20891;DHT22;10605;52.968;8.844;2023-02-28T14:56:03;6.90;74.60
20891;DHT22;10605;52.968;8.844;2023-02-28T14:58:35;6.90;77.20
20891;DHT22;10605;52.968;8.844;2023-02-28T15:01:10;6.70;73.50
20891;DHT22;10605;52.968;8.844;2023-02-28T15:03:39;6.70;73.10
20891;DHT22;10605;52.968;8.844;2023-02-28T15:06:17;6.70;73.10
20891;DHT22;10605;52.968;8.844;2023-02-28T15:09:22;6.60;75.10
20891;DHT22;10605;52.968;8.844;2023-02-28T15:11:52;6.60;75.10
20891;DHT22;10605;52.968;8.844;2023-02-28T15:14:22;6.60;74.20
20891;DHT22;10605;52.968;8.844;2023-02-28T15:17:00;6.60;73.40
20891;DHT22;10605;52.968;8.844;2023-02-28T15:19:32;6.60;75.80
20891;DHT22;10605;52.968;8.844;2023-02-28T15:22:14;6.60;74.40
20891;DHT22;10605;52.968;8.844;2023-02-28T15:24:53;6.50;77.20
20891;DHT22;10605;52.968;8.844;2023-02-28T15:27:31;6.50;79.10
20891;DHT22;10605;52.968;8.844;2023-02-28T15:30:00;6.50;80.00
20891;DHT22;10605;52.968;8.844;2023-02-28T15:32:30;6.40;77.70
20891;DHT22;10605;52.968;8.844;2023-02-28T15:34:58;6.40;78.40
20891;DHT22;10605;52.968;8.844;2023-02-28T15:37:48;6.30;76.90
20891;DHT22;10605;52.968;8.844;2023-02-28T15:40:41;6.30;78.10
20891;DHT22;10605;52.968;8.844;2023-02-28T15:43:14;6.20;80.00
20891;DHT22;10605;52.968;8.844;2023-02-28T15:45:58;6.30;80.10
20891;DHT22;10605;52.968;8.844;2023-02-28T15:48:31;6.20;79.20
20891;DHT22;10605;52.968;8.844;2023-02-28T15:53:42;6.00;79.20
20891;DHT22;10605;52.968;8.844;2023-02-28T15:56:24;6.00;80.30
20891;DHT22;10605;52.968;8.844;2023-02-28T15:58:54;6.00;82.10
20891;DHT22;10605;52.968;8.844;2023-02-28T16:01:25;5.90;83.50
20891;DHT22;10605;52.968;8.844;2023-02-28T16:03:56;5.90;81.00
20891;DHT22;10605;52.968;8.844;2023-02-28T16:08:58;5.80;80.80
20891;DHT22;10605;52.968;8.844;2023-02-28T16:11:23;5.80;80.90
20891;DHT22;10605;52.968;8.844;2023-02-28T16:13:50;5.80;80.10
20891;DHT22;10605;52.968;8.844;2023-02-28T16:16:18;5.70;82.90
20891;DHT22;10605;52.968;8.844;2023-02-28T16:18:44;5.70;83.80
20891;DHT22;10605;52.968;8.844;2023-02-28T16:21:10;5.50;84.90
20891;DHT22;10605;52.968;8.844;2023-02-28T16:23:36;5.50;84.50
20891;DHT22;10605;52.968;8.844;2023-02-28T16:26:05;5.40;86.40
20891;DHT22;10605;52.968;8.844;2023-02-28T16:28:36;5.40;87.30
20891;DHT22;10605;52.968;8.844;2023-02-28T16:31:06;5.20;88.90
20891;DHT22;10605;52.968;8.844;2023-02-28T16:33:34;5.20;90.70
20891;DHT22;10605;52.968;8.844;2023-02-28T16:36:00;5.10;90.70
20891;DHT22;10605;52.968;8.844;2023-02-28T16:38:26;5.10;90.40
20891;DHT22;10605;52.968;8.844;2023-02-28T16:40:55;5.00;90.40
20891;DHT22;10605;52.968;8.844;2023-02-28T16:43:24;4.90;90.80
20891;DHT22;10605;52.968;8.844;2023-02-28T16:45:59;4.80;91.00
20891;DHT22;10605;52.968;8.844;2023-02-28T16:48:26;4.60;91.90
20891;DHT22;10605;52.968;8.844;2023-02-28T16:50:52;4.60;92.30
20891;DHT22;10605;52.968;8.844;2023-02-28T16:53:20;4.50;94.10
20891;DHT22;10605;52.968;8.844;2023-02-28T16:55:46;4.40;95.10
20891;DHT22;10605;52.968;8.844;2023-02-28T16:58:16;4.30;96.20
20891;DHT22;10605;52.968;8.844;2023-02-28T17:00:42;4.20;97.00
20891;DHT22;10605;52.968;8.844;2023-02-28T17:03:25;4.00;98.00
20891;DHT22;10605;52.968;8.844;2023-02-28T17:05:56;4.00;97.10
20891;DHT22;10605;52.968;8.844;2023-02-28T17:08:22;3.90;98.40
20891;DHT22;10605;52.968;8.844;2023-02-28T17:10:59;3.90;97.80
20891;DHT22;10605;52.968;8.844;2023-02-28T17:13:27;3.80;98.30
20891;DHT22;10605;52.968;8.844;2023-02-28T17:15:56;3.70;99.90
20891;DHT22;10605;52.968;8.844;2023-02-28T17:18:22;3.60;99.90
20891;DHT22;10605;52.968;8.844;2023-02-28T17:20:48;3.50;99.90
20891;DHT22;10605;52.968;8.844;2023-02-28T17:23:14;3.40;99.90
20891;DHT22;10605;52.968;8.844;2023-02-28T17:25:41;3.30;99.90
20891;DHT22;10605;52.968;8.844;2023-02-28T17:28:14;3.20;99.90
20891;DHT22;10605;52.968;8.844;2023-02-28T17:30:42;3.10;99.90
20891;DHT22;10605;52.968;8.844;2023-02-28T17:33:12;3.00;99.90
20891;DHT22;10605;52.968;8.844;2023-02-28T17:35:43;3.00;99.90
20891;DHT22;10605;52.968;8.844;2023-02-28T17:38:18;2.90;99.90
20891;DHT22;10605;52.968;8.844;2023-02-28T17:40:47;2.90;99.90
20891;DHT22;10605;52.968;8.844;2023-02-28T17:43:13;2.80;99.90
20891;DHT22;10605;52.968;8.844;2023-02-28T17:45:42;2.70;99.90
20891;DHT22;10605;52.968;8.844;2023-02-28T17:48:13;2.60;99.90
20891;DHT22;10605;52.968;8.844;2023-02-28T17:50:43;2.60;99.90
20891;DHT22;10605;52.968;8.844;2023-02-28T17:53:08;2.60;99.90
20891;DHT22;10605;52.968;8.844;2023-02-28T17:55:37;2.50;99.90
20891;DHT22;10605;52.968;8.844;2023-02-28T17:58:04;2.40;99.90
20891;DHT22;10605;52.968;8.844;2023-02-28T18:00:30;2.30;99.90
20891;DHT22;10605;52.968;8.844;2023-02-28T18:03:01;2.20;99.90
20891;DHT22;10605;52.968;8.844;2023-02-28T18:05:34;2.10;99.90
20891;DHT22;10605;52.968;8.844;2023-02-28T18:08:04;2.10;99.90
20891;DHT22;10605;52.968;8.844;2023-02-28T18:10:30;2.00;99.90
20891;DHT22;10605;52.968;8.844;2023-02-28T18:12:59;1.90;99.90
20891;DHT22;10605;52.968;8.844;2023-02-28T18:15:24;1.80;99.90
20891;DHT22;10605;52.968;8.844;2023-02-28T18:17:50;1.80;99.90
20891;DHT22;10605;52.968;8.844;2023-02-28T18:20:22;1.80;99.90
20891;DHT22;10605;52.968;8.844;2023-02-28T18:22:51;1.70;99.90
20891;DHT22;10605;52.968;8.844;2023-02-28T18:25:17;1.80;99.90
20891;DHT22;10605;52.968;8.844;2023-02-28T18:27:44;2.00;99.90
20891;DHT22;10605;52.968;8.844;2023-02-28T18:30:25;2.00;99.90
20891;DHT22;10605;52.968;8.844;2023-02-28T18:32:51;1.80;99.90
20891;DHT22;10605;52.968;8.844;2023-02-28T18:35:17;1.60;99.90
20891;DHT22;10605;52.968;8.844;2023-02-28T18:38:14;1.50;99.90
20891;DHT22;10605;52.968;8.844;2023-02-28T18:40:41;1.50;99.90
20891;DHT22;10605;52.968;8.844;2023-02-28T18:43:16;1.40;99.90
20891;DHT22;10605;52.968;8.844;2023-02-28T18:45:42;1.50;99.90
20891;DHT22;10605;52.968;8.844;2023-02-28T18:48:08;1.60;99.90
20891;DHT22;10605;52.968;8.844;2023-02-28T18:50:37;1.40;99.90
20891;DHT22;10605;52.968;8.844;2023-02-28T18:53:03;1.40;99.90
20891;DHT22;10605;52.968;8.844;2023-02-28T18:55:31;1.30;99.90
20891;DHT22;10605;52.968;8.844;2023-02-28T18:57:57;1.20;99.90
20891;DHT22;10605;52.968;8.844;2023-02-28T19:00:23;1.10;99.90
20891;DHT22;10605;52.968;8.844;2023-02-28T19:02:50;1.10;99.90